sensor_id;sensor_type;location;lat;lon;timestamp;P1;durP1;ratioP1;P2;durP2;ratioP2
52470;SDS011;38382;53.160;7.026;2023-02-05T00:01:18;11.05;;;7.15;;
52470;SDS011;38382;53.160;7.026;2023-02-05T00:03:44;9.18;;;6.75;;
52470;SDS011;38382;53.160;7.026;2023-02-05T00:06:10;10.93;;;7.53;;
52470;SDS011;38382;53.160;7.026;2023-02-05T00:08:35;11.63;;;7.80;;
52470;SDS011;38382;53.160;7.026;2023-02-05T00:11:01;10.43;;;7.28;;
52470;SDS011;38382;53.160;7.026;2023-02-05T00:13:34;10.65;;;7.35;;
52470;SDS011;38382;53.160;7.026;2023-02-05T00:16:07;12.25;;;7.47;;
52470;SDS011;38382;53.160;7.026;2023-02-05T00:18:47;12.30;;;7.63;;
52470;SDS011;38382;53.160;7.026;2023-02-05T00:21:13;10.55;;;7.05;;
52470;SDS011;38382;53.160;7.026;2023-02-05T00:23:42;12.02;;;7.25;;
52470;SDS011;38382;53.160;7.026;2023-02-05T00:30:09;11.48;;;7.88;;
52470;SDS011;38382;53.160;7.026;2023-02-05T00:47:17;11.48;;;6.90;;
52470;SDS011;38382;53.160;7.026;2023-02-05T01:08:17;10.98;;;7.38;;
52470;SDS011;38382;53.160;7.026;2023-02-05T01:33:17;10.85;;;7.15;;
52470;SDS011;38382;53.160;7.026;2023-02-05T01:41:05;10.52;;;7.28;;
52470;SDS011;38382;53.160;7.026;2023-02-05T01:48:21;12.77;;;8.23;;
52470;SDS011;38382;53.160;7.026;2023-02-05T01:51:32;12.93;;;8.05;;
52470;SDS011;38382;53.160;7.026;2023-02-05T01:57:47;14.88;;;8.68;;
52470;SDS011;38382;53.160;7.026;2023-02-05T02:00:51;14.90;;;8.52;;
52470;SDS011;38382;53.160;7.026;2023-02-05T02:07:21;12.93;;;8.60;;
52470;SDS011;38382;53.160;7.026;2023-02-05T02:12:42;14.23;;;9.13;;
52470;SDS011;38382;53.160;7.026;2023-02-05T02:15:12;13.02;;;8.60;;
52470;SDS011;38382;53.160;7.026;2023-02-05T02:17:45;15.18;;;9.50;;
52470;SDS011;38382;53.160;7.026;2023-02-05T03:12:01;18.17;;;10.82;;
52470;SDS011;38382;53.160;7.026;2023-02-05T04:38:26;27.24;;;13.46;;
52470;SDS011;38382;53.160;7.026;2023-02-05T04:59:01;41.28;;;15.60;;
52470;SDS011;38382;53.160;7.026;2023-02-05T05:06:04;38.55;;;16.30;;
52470;SDS011;38382;53.160;7.026;2023-02-05T05:09:08;38.38;;;16.60;;
52470;SDS011;38382;53.160;7.026;2023-02-05T06:49:59;17.30;;;3.03;;
52470;SDS011;38382;53.160;7.026;2023-02-05T06:53:15;15.38;;;2.50;;
52470;SDS011;38382;53.160;7.026;2023-02-05T07:03:01;14.85;;;2.47;;
52470;SDS011;38382;53.160;7.026;2023-02-05T07:06:44;14.13;;;2.25;;
52470;SDS011;38382;53.160;7.026;2023-02-05T07:10:06;16.02;;;2.28;;
52470;SDS011;38382;53.160;7.026;2023-02-05T07:12:50;14.47;;;2.40;;
52470;SDS011;38382;53.160;7.026;2023-02-05T07:15:18;20.48;;;2.33;;
52470;SDS011;38382;53.160;7.026;2023-02-05T07:17:47;18.88;;;2.90;;
52470;SDS011;38382;53.160;7.026;2023-02-05T07:20:23;15.55;;;2.13;;
52470;SDS011;38382;53.160;7.026;2023-02-05T07:23:06;12.15;;;1.83;;
52470;SDS011;38382;53.160;7.026;2023-02-05T07:25:33;13.13;;;1.98;;
52470;SDS011;38382;53.160;7.026;2023-02-05T07:28:05;12.85;;;2.10;;
52470;SDS011;38382;53.160;7.026;2023-02-05T07:30:40;13.52;;;2.20;;
52470;SDS011;38382;53.160;7.026;2023-02-05T07:33:06;21.33;;;2.65;;
52470;SDS011;38382;53.160;7.026;2023-02-05T07:35:35;14.20;;;2.40;;
52470;SDS011;38382;53.160;7.026;2023-02-05T07:38:18;13.90;;;1.73;;
52470;SDS011;38382;53.160;7.026;2023-02-05T07:40:43;18.83;;;2.47;;
52470;SDS011;38382;53.160;7.026;2023-02-05T07:43:18;13.48;;;2.30;;
52470;SDS011;38382;53.160;7.026;2023-02-05T07:45:45;23.10;;;2.75;;
52470;SDS011;38382;53.160;7.026;2023-02-05T07:48:14;16.17;;;3.08;;
52470;SDS011;38382;53.160;7.026;2023-02-05T07:50:43;16.33;;;2.22;;
52470;SDS011;38382;53.160;7.026;2023-02-05T07:53:12;11.57;;;2.35;;
52470;SDS011;38382;53.160;7.026;2023-02-05T07:55:40;16.42;;;2.30;;
52470;SDS011;38382;53.160;7.026;2023-02-05T07:58:09;14.20;;;2.70;;
52470;SDS011;38382;53.160;7.026;2023-02-05T08:04:07;14.68;;;2.40;;
52470;SDS011;38382;53.160;7.026;2023-02-05T08:06:33;14.07;;;2.35;;
52470;SDS011;38382;53.160;7.026;2023-02-05T08:09:14;21.80;;;3.20;;
52470;SDS011;38382;53.160;7.026;2023-02-05T08:14:38;15.38;;;2.53;;
52470;SDS011;38382;53.160;7.026;2023-02-05T08:17:06;21.67;;;3.10;;
52470;SDS011;38382;53.160;7.026;2023-02-05T08:19:59;15.15;;;2.85;;
52470;SDS011;38382;53.160;7.026;2023-02-05T08:22:42;18.23;;;3.00;;
52470;SDS011;38382;53.160;7.026;2023-02-05T08:25:14;19.33;;;2.72;;
52470;SDS011;38382;53.160;7.026;2023-02-05T08:27:52;17.77;;;3.13;;
52470;SDS011;38382;53.160;7.026;2023-02-05T08:30:20;15.23;;;2.92;;
52470;SDS011;38382;53.160;7.026;2023-02-05T08:33:09;10.70;;;2.38;;
52470;SDS011;38382;53.160;7.026;2023-02-05T08:36:12;16.10;;;2.83;;
52470;SDS011;38382;53.160;7.026;2023-02-05T08:38:47;23.73;;;3.47;;
52470;SDS011;38382;53.160;7.026;2023-02-05T08:41:24;20.52;;;3.15;;
52470;SDS011;38382;53.160;7.026;2023-02-05T08:43:58;18.75;;;3.70;;
52470;SDS011;38382;53.160;7.026;2023-02-05T08:46:37;19.13;;;2.90;;
52470;SDS011;38382;53.160;7.026;2023-02-05T08:49:15;16.05;;;2.40;;
52470;SDS011;38382;53.160;7.026;2023-02-05T08:51:47;12.32;;;2.40;;
52470;SDS011;38382;53.160;7.026;2023-02-05T08:54:31;12.63;;;2.58;;
52470;SDS011;38382;53.160;7.026;2023-02-05T09:00:06;14.25;;;1.90;;
52470;SDS011;38382;53.160;7.026;2023-02-05T09:02:56;12.57;;;2.40;;
52470;SDS011;38382;53.160;7.026;2023-02-05T09:06:12;13.93;;;2.60;;
52470;SDS011;38382;53.160;7.026;2023-02-05T09:08:44;12.73;;;2.40;;
52470;SDS011;38382;53.160;7.026;2023-02-05T09:11:24;8.27;;;1.98;;
52470;SDS011;38382;53.160;7.026;2023-02-05T09:13:54;7.25;;;1.70;;
52470;SDS011;38382;53.160;7.026;2023-02-05T09:16:21;8.77;;;1.83;;
52470;SDS011;38382;53.160;7.026;2023-02-05T09:18:47;10.88;;;2.25;;
52470;SDS011;38382;53.160;7.026;2023-02-05T09:21:12;5.72;;;2.13;;
52470;SDS011;38382;53.160;7.026;2023-02-05T09:23:38;9.40;;;2.47;;
52470;SDS011;38382;53.160;7.026;2023-02-05T09:26:07;7.15;;;2.00;;
52470;SDS011;38382;53.160;7.026;2023-02-05T09:28:51;12.63;;;2.30;;
52470;SDS011;38382;53.160;7.026;2023-02-05T09:34:57;13.65;;;2.28;;
52470;SDS011;38382;53.160;7.026;2023-02-05T09:41:21;15.50;;;2.35;;
52470;SDS011;38382;53.160;7.026;2023-02-05T09:50:18;14.05;;;2.28;;
52470;SDS011;38382;53.160;7.026;2023-02-05T09:53:22;8.60;;;2.20;;
52470;SDS011;38382;53.160;7.026;2023-02-05T09:55:54;10.00;;;1.83;;
52470;SDS011;38382;53.160;7.026;2023-02-05T09:58:31;13.90;;;2.13;;
52470;SDS011;38382;53.160;7.026;2023-02-05T10:01:16;14.02;;;2.10;;
52470;SDS011;38382;53.160;7.026;2023-02-05T10:04:18;11.82;;;2.42;;
52470;SDS011;38382;53.160;7.026;2023-02-05T10:13:34;13.05;;;2.38;;
52470;SDS011;38382;53.160;7.026;2023-02-05T10:19:08;14.90;;;2.83;;
52470;SDS011;38382;53.160;7.026;2023-02-05T10:22:02;12.70;;;2.92;;
52470;SDS011;38382;53.160;7.026;2023-02-05T10:31:40;12.02;;;2.28;;
52470;SDS011;38382;53.160;7.026;2023-02-05T10:37:13;14.57;;;2.28;;
52470;SDS011;38382;53.160;7.026;2023-02-05T10:39:43;10.55;;;2.58;;
52470;SDS011;38382;53.160;7.026;2023-02-05T10:44:45;13.43;;;2.63;;
52470;SDS011;38382;53.160;7.026;2023-02-05T10:47:38;14.90;;;2.83;;
52470;SDS011;38382;53.160;7.026;2023-02-05T10:50:23;11.63;;;2.40;;
52470;SDS011;38382;53.160;7.026;2023-02-05T10:53:08;15.93;;;2.70;;
52470;SDS011;38382;53.160;7.026;2023-02-05T10:55:35;14.95;;;2.65;;
52470;SDS011;38382;53.160;7.026;2023-02-05T10:58:01;23.45;;;3.30;;
52470;SDS011;38382;53.160;7.026;2023-02-05T11:00:47;19.67;;;2.85;;
52470;SDS011;38382;53.160;7.026;2023-02-05T11:03:15;15.45;;;2.70;;
52470;SDS011;38382;53.160;7.026;2023-02-05T11:05:42;19.58;;;3.00;;
52470;SDS011;38382;53.160;7.026;2023-02-05T11:11:06;17.48;;;3.38;;
52470;SDS011;38382;53.160;7.026;2023-02-05T11:13:46;22.13;;;3.22;;
52470;SDS011;38382;53.160;7.026;2023-02-05T11:16:15;18.98;;;3.45;;
52470;SDS011;38382;53.160;7.026;2023-02-05T11:21:08;23.75;;;3.45;;
52470;SDS011;38382;53.160;7.026;2023-02-05T11:23:35;19.83;;;3.25;;
52470;SDS011;38382;53.160;7.026;2023-02-05T11:26:18;17.77;;;3.00;;
52470;SDS011;38382;53.160;7.026;2023-02-05T11:28:46;23.15;;;4.25;;
52470;SDS011;38382;53.160;7.026;2023-02-05T11:31:19;16.73;;;3.60;;
52470;SDS011;38382;53.160;7.026;2023-02-05T11:33:51;20.02;;;3.45;;
52470;SDS011;38382;53.160;7.026;2023-02-05T11:36:32;27.88;;;3.78;;
52470;SDS011;38382;53.160;7.026;2023-02-05T11:38:59;26.42;;;4.15;;
52470;SDS011;38382;53.160;7.026;2023-02-05T11:43:55;19.90;;;3.75;;
52470;SDS011;38382;53.160;7.026;2023-02-05T11:46:24;32.95;;;3.95;;
52470;SDS011;38382;53.160;7.026;2023-02-05T11:48:53;32.47;;;4.85;;
52470;SDS011;38382;53.160;7.026;2023-02-05T11:51:35;30.00;;;4.75;;
52470;SDS011;38382;53.160;7.026;2023-02-05T11:57:03;33.20;;;4.88;;
52470;SDS011;38382;53.160;7.026;2023-02-05T11:59:53;28.98;;;4.15;;
52470;SDS011;38382;53.160;7.026;2023-02-05T12:05:05;29.83;;;4.45;;
52470;SDS011;38382;53.160;7.026;2023-02-05T12:07:39;21.40;;;4.40;;
52470;SDS011;38382;53.160;7.026;2023-02-05T12:10:27;32.75;;;5.15;;
52470;SDS011;38382;53.160;7.026;2023-02-05T12:13:13;27.27;;;5.03;;
52470;SDS011;38382;53.160;7.026;2023-02-05T12:16:00;21.52;;;4.47;;
52470;SDS011;38382;53.160;7.026;2023-02-05T12:34:57;26.48;;;4.40;;
52470;SDS011;38382;53.160;7.026;2023-02-05T12:43:37;31.73;;;5.13;;
52470;SDS011;38382;53.160;7.026;2023-02-05T12:46:16;24.90;;;4.70;;
52470;SDS011;38382;53.160;7.026;2023-02-05T12:48:47;24.95;;;4.70;;
52470;SDS011;38382;53.160;7.026;2023-02-05T12:57:45;25.55;;;5.30;;
52470;SDS011;38382;53.160;7.026;2023-02-05T13:00:36;33.58;;;5.70;;
52470;SDS011;38382;53.160;7.026;2023-02-05T13:05:50;24.10;;;5.05;;
52470;SDS011;38382;53.160;7.026;2023-02-05T13:11:01;32.20;;;5.05;;
52470;SDS011;38382;53.160;7.026;2023-02-05T13:14:15;29.15;;;4.65;;
52470;SDS011;38382;53.160;7.026;2023-02-05T13:16:46;34.40;;;5.03;;
52470;SDS011;38382;53.160;7.026;2023-02-05T13:21:41;17.83;;;4.32;;
52470;SDS011;38382;53.160;7.026;2023-02-05T13:24:28;23.23;;;4.15;;
52470;SDS011;38382;53.160;7.026;2023-02-05T13:27:25;25.30;;;4.57;;
52470;SDS011;38382;53.160;7.026;2023-02-05T13:30:15;24.77;;;4.93;;
52470;SDS011;38382;53.160;7.026;2023-02-05T13:32:50;25.13;;;4.43;;
52470;SDS011;38382;53.160;7.026;2023-02-05T13:35:20;29.45;;;5.68;;
52470;SDS011;38382;53.160;7.026;2023-02-05T13:40:38;28.42;;;4.63;;
52470;SDS011;38382;53.160;7.026;2023-02-05T13:56:52;20.30;;;4.75;;
52470;SDS011;38382;53.160;7.026;2023-02-05T13:59:37;22.52;;;4.05;;
52470;SDS011;38382;53.160;7.026;2023-02-05T14:02:21;27.20;;;4.20;;
52470;SDS011;38382;53.160;7.026;2023-02-05T14:04:50;18.98;;;3.60;;
52470;SDS011;38382;53.160;7.026;2023-02-05T14:07:26;22.77;;;4.18;;
52470;SDS011;38382;53.160;7.026;2023-02-05T14:09:55;21.88;;;4.35;;
52470;SDS011;38382;53.160;7.026;2023-02-05T14:12:26;24.83;;;4.95;;
52470;SDS011;38382;53.160;7.026;2023-02-05T14:17:50;24.27;;;4.35;;
52470;SDS011;38382;53.160;7.026;2023-02-05T14:22:49;26.02;;;4.40;;
52470;SDS011;38382;53.160;7.026;2023-02-05T14:28:03;28.73;;;4.50;;
52470;SDS011;38382;53.160;7.026;2023-02-05T14:33:25;31.08;;;4.70;;
52470;SDS011;38382;53.160;7.026;2023-02-05T14:38:58;31.05;;;5.15;;
52470;SDS011;38382;53.160;7.026;2023-02-05T14:44:05;27.13;;;5.32;;
52470;SDS011;38382;53.160;7.026;2023-02-05T14:47:05;25.00;;;4.97;;
52470;SDS011;38382;53.160;7.026;2023-02-05T14:49:43;28.23;;;5.88;;
52470;SDS011;38382;53.160;7.026;2023-02-05T14:54:57;25.55;;;4.95;;
52470;SDS011;38382;53.160;7.026;2023-02-05T14:57:46;24.10;;;4.03;;
52470;SDS011;38382;53.160;7.026;2023-02-05T15:05:32;35.22;;;4.70;;
52470;SDS011;38382;53.160;7.026;2023-02-05T15:08:22;26.00;;;5.70;;
52470;SDS011;38382;53.160;7.026;2023-02-05T15:11:13;22.48;;;4.95;;
52470;SDS011;38382;53.160;7.026;2023-02-05T15:16:46;36.35;;;6.13;;
52470;SDS011;38382;53.160;7.026;2023-02-05T15:19:45;30.15;;;4.65;;
52470;SDS011;38382;53.160;7.026;2023-02-05T15:22:25;25.45;;;4.72;;
52470;SDS011;38382;53.160;7.026;2023-02-05T15:25:08;25.88;;;5.13;;
52470;SDS011;38382;53.160;7.026;2023-02-05T15:27:43;29.58;;;5.15;;
52470;SDS011;38382;53.160;7.026;2023-02-05T15:30:19;25.75;;;4.93;;
52470;SDS011;38382;53.160;7.026;2023-02-05T15:32:51;27.25;;;5.85;;
52470;SDS011;38382;53.160;7.026;2023-02-05T15:35:25;28.13;;;4.88;;
52470;SDS011;38382;53.160;7.026;2023-02-05T15:37:54;31.90;;;4.65;;
52470;SDS011;38382;53.160;7.026;2023-02-05T15:40:48;36.60;;;4.95;;
52470;SDS011;38382;53.160;7.026;2023-02-05T15:43:23;30.92;;;5.22;;
52470;SDS011;38382;53.160;7.026;2023-02-05T15:45:50;29.70;;;5.15;;
52470;SDS011;38382;53.160;7.026;2023-02-05T15:50:51;24.80;;;4.50;;
52470;SDS011;38382;53.160;7.026;2023-02-05T15:53:31;31.80;;;4.82;;
52470;SDS011;38382;53.160;7.026;2023-02-05T15:58:39;25.67;;;4.68;;
52470;SDS011;38382;53.160;7.026;2023-02-05T16:06:54;24.15;;;5.15;;
52470;SDS011;38382;53.160;7.026;2023-02-05T16:09:24;27.33;;;4.57;;
52470;SDS011;38382;53.160;7.026;2023-02-05T16:11:51;33.90;;;5.05;;
52470;SDS011;38382;53.160;7.026;2023-02-05T16:14:19;24.77;;;4.35;;
52470;SDS011;38382;53.160;7.026;2023-02-05T16:19:28;38.25;;;5.15;;
52470;SDS011;38382;53.160;7.026;2023-02-05T16:21:59;23.77;;;4.57;;
52470;SDS011;38382;53.160;7.026;2023-02-05T16:26:59;31.63;;;5.47;;
52470;SDS011;38382;53.160;7.026;2023-02-05T16:29:35;38.53;;;5.65;;
52470;SDS011;38382;53.160;7.026;2023-02-05T16:32:04;34.28;;;5.05;;
52470;SDS011;38382;53.160;7.026;2023-02-05T16:35:00;33.00;;;5.93;;
52470;SDS011;38382;53.160;7.026;2023-02-05T16:37:29;26.15;;;4.95;;
52470;SDS011;38382;53.160;7.026;2023-02-05T16:39:56;27.40;;;4.60;;
52470;SDS011;38382;53.160;7.026;2023-02-05T16:47:37;35.92;;;5.38;;
52470;SDS011;38382;53.160;7.026;2023-02-05T16:53:01;34.38;;;5.82;;
52470;SDS011;38382;53.160;7.026;2023-02-05T16:57:55;27.48;;;5.03;;
52470;SDS011;38382;53.160;7.026;2023-02-05T17:00:28;40.60;;;6.10;;
52470;SDS011;38382;53.160;7.026;2023-02-05T17:02:56;33.08;;;5.35;;
52470;SDS011;38382;53.160;7.026;2023-02-05T17:05:31;34.63;;;5.72;;
52470;SDS011;38382;53.160;7.026;2023-02-05T17:08:02;33.60;;;5.65;;
52470;SDS011;38382;53.160;7.026;2023-02-05T17:10:31;32.55;;;5.50;;
52470;SDS011;38382;53.160;7.026;2023-02-05T17:13:26;33.28;;;5.00;;
52470;SDS011;38382;53.160;7.026;2023-02-05T17:16:26;32.72;;;4.90;;
52470;SDS011;38382;53.160;7.026;2023-02-05T17:19:03;34.75;;;5.15;;
52470;SDS011;38382;53.160;7.026;2023-02-05T17:21:34;21.13;;;4.97;;
52470;SDS011;38382;53.160;7.026;2023-02-05T17:24:00;29.48;;;4.88;;
52470;SDS011;38382;53.160;7.026;2023-02-05T17:26:31;28.90;;;5.03;;
52470;SDS011;38382;53.160;7.026;2023-02-05T17:29:00;24.77;;;4.85;;
52470;SDS011;38382;53.160;7.026;2023-02-05T17:31:28;33.78;;;5.63;;
52470;SDS011;38382;53.160;7.026;2023-02-05T17:33:57;29.30;;;4.68;;
52470;SDS011;38382;53.160;7.026;2023-02-05T17:36:23;33.28;;;5.25;;
52470;SDS011;38382;53.160;7.026;2023-02-05T17:38:50;27.77;;;4.85;;
52470;SDS011;38382;53.160;7.026;2023-02-05T17:41:17;25.35;;;5.05;;
52470;SDS011;38382;53.160;7.026;2023-02-05T17:44:08;23.30;;;4.20;;
52470;SDS011;38382;53.160;7.026;2023-02-05T17:46:36;28.67;;;5.30;;
52470;SDS011;38382;53.160;7.026;2023-02-05T17:49:02;30.08;;;5.45;;
52470;SDS011;38382;53.160;7.026;2023-02-05T17:51:28;32.75;;;5.82;;
52470;SDS011;38382;53.160;7.026;2023-02-05T17:53:53;28.85;;;5.38;;
52470;SDS011;38382;53.160;7.026;2023-02-05T17:56:20;28.58;;;5.32;;
52470;SDS011;38382;53.160;7.026;2023-02-05T17:58:46;29.52;;;5.00;;
52470;SDS011;38382;53.160;7.026;2023-02-05T18:01:13;30.30;;;5.38;;
52470;SDS011;38382;53.160;7.026;2023-02-05T18:03:40;31.38;;;4.82;;
52470;SDS011;38382;53.160;7.026;2023-02-05T18:06:06;26.90;;;4.63;;
52470;SDS011;38382;53.160;7.026;2023-02-05T18:08:36;23.25;;;4.07;;
52470;SDS011;38382;53.160;7.026;2023-02-05T18:11:02;34.33;;;5.43;;
52470;SDS011;38382;53.160;7.026;2023-02-05T18:13:29;28.80;;;5.30;;
52470;SDS011;38382;53.160;7.026;2023-02-05T18:15:55;21.50;;;4.10;;
52470;SDS011;38382;53.160;7.026;2023-02-05T18:18:26;28.63;;;4.80;;
52470;SDS011;38382;53.160;7.026;2023-02-05T18:20:53;35.45;;;5.20;;
52470;SDS011;38382;53.160;7.026;2023-02-05T18:23:20;33.75;;;4.82;;
52470;SDS011;38382;53.160;7.026;2023-02-05T18:25:46;27.30;;;5.43;;
52470;SDS011;38382;53.160;7.026;2023-02-05T18:28:13;24.15;;;4.25;;
52470;SDS011;38382;53.160;7.026;2023-02-05T18:30:40;30.50;;;4.72;;
52470;SDS011;38382;53.160;7.026;2023-02-05T18:33:06;37.10;;;5.45;;
52470;SDS011;38382;53.160;7.026;2023-02-05T18:35:32;28.50;;;5.18;;
52470;SDS011;38382;53.160;7.026;2023-02-05T18:37:58;24.20;;;4.13;;
52470;SDS011;38382;53.160;7.026;2023-02-05T18:40:24;33.25;;;4.78;;
52470;SDS011;38382;53.160;7.026;2023-02-05T18:42:50;30.48;;;4.95;;
52470;SDS011;38382;53.160;7.026;2023-02-05T18:45:17;30.25;;;3.97;;
52470;SDS011;38382;53.160;7.026;2023-02-05T18:47:43;19.40;;;4.15;;
52470;SDS011;38382;53.160;7.026;2023-02-05T18:50:09;28.05;;;4.35;;
52470;SDS011;38382;53.160;7.026;2023-02-05T18:52:35;22.08;;;3.80;;
52470;SDS011;38382;53.160;7.026;2023-02-05T18:55:01;28.77;;;5.20;;
52470;SDS011;38382;53.160;7.026;2023-02-05T18:57:27;23.65;;;4.40;;
52470;SDS011;38382;53.160;7.026;2023-02-05T18:59:53;29.33;;;4.55;;
52470;SDS011;38382;53.160;7.026;2023-02-05T19:02:18;37.38;;;5.15;;
52470;SDS011;38382;53.160;7.026;2023-02-05T19:04:44;35.00;;;4.78;;
52470;SDS011;38382;53.160;7.026;2023-02-05T19:07:14;31.08;;;4.25;;
52470;SDS011;38382;53.160;7.026;2023-02-05T19:09:40;29.27;;;4.72;;
52470;SDS011;38382;53.160;7.026;2023-02-05T19:12:07;30.90;;;4.35;;
52470;SDS011;38382;53.160;7.026;2023-02-05T19:14:33;34.28;;;4.78;;
52470;SDS011;38382;53.160;7.026;2023-02-05T19:16:58;33.03;;;4.18;;
52470;SDS011;38382;53.160;7.026;2023-02-05T19:19:24;30.10;;;4.72;;
52470;SDS011;38382;53.160;7.026;2023-02-05T19:21:54;29.48;;;4.43;;
52470;SDS011;38382;53.160;7.026;2023-02-05T19:24:23;31.67;;;4.53;;
52470;SDS011;38382;53.160;7.026;2023-02-05T19:26:49;29.42;;;4.88;;
52470;SDS011;38382;53.160;7.026;2023-02-05T19:29:18;28.63;;;4.63;;
52470;SDS011;38382;53.160;7.026;2023-02-05T19:31:44;28.15;;;4.68;;
52470;SDS011;38382;53.160;7.026;2023-02-05T19:34:10;21.50;;;4.10;;
52470;SDS011;38382;53.160;7.026;2023-02-05T19:36:36;36.47;;;5.47;;
52470;SDS011;38382;53.160;7.026;2023-02-05T19:39:03;35.97;;;4.55;;
52470;SDS011;38382;53.160;7.026;2023-02-05T19:41:31;37.97;;;5.03;;
52470;SDS011;38382;53.160;7.026;2023-02-05T19:43:59;31.05;;;4.75;;
52470;SDS011;38382;53.160;7.026;2023-02-05T19:46:34;31.00;;;5.60;;
52470;SDS011;38382;53.160;7.026;2023-02-05T19:49:03;33.08;;;5.03;;
52470;SDS011;38382;53.160;7.026;2023-02-05T19:51:30;33.95;;;5.60;;
52470;SDS011;38382;53.160;7.026;2023-02-05T19:53:57;35.20;;;4.78;;
52470;SDS011;38382;53.160;7.026;2023-02-05T19:56:24;31.38;;;4.85;;
52470;SDS011;38382;53.160;7.026;2023-02-05T19:58:51;32.97;;;4.82;;
52470;SDS011;38382;53.160;7.026;2023-02-05T20:01:22;34.70;;;4.85;;
52470;SDS011;38382;53.160;7.026;2023-02-05T20:03:53;34.90;;;5.07;;
52470;SDS011;38382;53.160;7.026;2023-02-05T20:06:22;31.80;;;4.80;;
52470;SDS011;38382;53.160;7.026;2023-02-05T20:08:50;26.50;;;4.68;;
52470;SDS011;38382;53.160;7.026;2023-02-05T20:11:16;29.58;;;4.90;;
52470;SDS011;38382;53.160;7.026;2023-02-05T20:13:43;24.58;;;4.43;;
52470;SDS011;38382;53.160;7.026;2023-02-05T20:16:19;34.13;;;5.60;;
52470;SDS011;38382;53.160;7.026;2023-02-05T20:18:46;39.28;;;4.82;;
52470;SDS011;38382;53.160;7.026;2023-02-05T20:21:20;34.30;;;5.53;;
52470;SDS011;38382;53.160;7.026;2023-02-05T20:23:47;31.20;;;4.40;;
52470;SDS011;38382;53.160;7.026;2023-02-05T20:26:14;27.08;;;4.65;;
52470;SDS011;38382;53.160;7.026;2023-02-05T20:28:44;36.30;;;5.05;;
52470;SDS011;38382;53.160;7.026;2023-02-05T20:31:29;36.83;;;5.85;;
52470;SDS011;38382;53.160;7.026;2023-02-05T20:34:01;29.90;;;5.82;;
52470;SDS011;38382;53.160;7.026;2023-02-05T20:36:29;39.30;;;6.20;;
52470;SDS011;38382;53.160;7.026;2023-02-05T20:38:56;33.80;;;5.05;;
52470;SDS011;38382;53.160;7.026;2023-02-05T20:41:24;44.28;;;5.38;;
52470;SDS011;38382;53.160;7.026;2023-02-05T20:43:50;35.40;;;5.63;;
52470;SDS011;38382;53.160;7.026;2023-02-05T20:46:16;30.33;;;4.45;;
52470;SDS011;38382;53.160;7.026;2023-02-05T20:48:42;35.20;;;4.70;;
52470;SDS011;38382;53.160;7.026;2023-02-05T20:51:12;36.50;;;5.22;;
52470;SDS011;38382;53.160;7.026;2023-02-05T20:53:39;32.30;;;4.30;;
52470;SDS011;38382;53.160;7.026;2023-02-05T20:56:07;32.83;;;4.72;;
52470;SDS011;38382;53.160;7.026;2023-02-05T20:58:44;30.73;;;4.47;;
52470;SDS011;38382;53.160;7.026;2023-02-05T21:01:15;29.48;;;4.88;;
52470;SDS011;38382;53.160;7.026;2023-02-05T21:03:51;30.95;;;4.63;;
52470;SDS011;38382;53.160;7.026;2023-02-05T21:06:20;32.58;;;4.40;;
52470;SDS011;38382;53.160;7.026;2023-02-05T21:08:47;36.03;;;4.85;;
52470;SDS011;38382;53.160;7.026;2023-02-05T21:11:14;31.48;;;4.47;;
52470;SDS011;38382;53.160;7.026;2023-02-05T21:13:42;30.13;;;4.93;;
52470;SDS011;38382;53.160;7.026;2023-02-05T21:16:08;28.42;;;3.90;;
52470;SDS011;38382;53.160;7.026;2023-02-05T21:18:35;23.70;;;4.43;;
52470;SDS011;38382;53.160;7.026;2023-02-05T21:21:09;24.98;;;4.15;;
52470;SDS011;38382;53.160;7.026;2023-02-05T21:23:37;30.85;;;4.97;;
52470;SDS011;38382;53.160;7.026;2023-02-05T21:26:03;17.58;;;3.85;;
52470;SDS011;38382;53.160;7.026;2023-02-05T21:28:30;20.70;;;4.55;;
52470;SDS011;38382;53.160;7.026;2023-02-05T21:31:03;25.25;;;4.90;;
52470;SDS011;38382;53.160;7.026;2023-02-05T21:33:33;34.22;;;5.18;;
52470;SDS011;38382;53.160;7.026;2023-02-05T21:36:06;29.27;;;5.00;;
52470;SDS011;38382;53.160;7.026;2023-02-05T21:38:34;28.08;;;4.25;;
52470;SDS011;38382;53.160;7.026;2023-02-05T21:41:11;28.98;;;4.05;;
52470;SDS011;38382;53.160;7.026;2023-02-05T21:43:42;27.02;;;4.97;;
52470;SDS011;38382;53.160;7.026;2023-02-05T21:46:12;32.85;;;4.53;;
52470;SDS011;38382;53.160;7.026;2023-02-05T21:48:38;36.53;;;4.82;;
52470;SDS011;38382;53.160;7.026;2023-02-05T21:51:09;30.00;;;4.70;;
52470;SDS011;38382;53.160;7.026;2023-02-05T21:53:36;34.25;;;3.85;;
52470;SDS011;38382;53.160;7.026;2023-02-05T21:56:02;26.88;;;3.85;;
52470;SDS011;38382;53.160;7.026;2023-02-05T21:58:30;34.22;;;5.22;;
52470;SDS011;38382;53.160;7.026;2023-02-05T22:03:42;29.23;;;4.75;;
52470;SDS011;38382;53.160;7.026;2023-02-05T22:06:12;33.53;;;4.90;;
52470;SDS011;38382;53.160;7.026;2023-02-05T22:08:38;22.52;;;4.32;;
52470;SDS011;38382;53.160;7.026;2023-02-05T22:11:06;32.03;;;4.22;;
52470;SDS011;38382;53.160;7.026;2023-02-05T22:13:34;30.02;;;3.80;;
52470;SDS011;38382;53.160;7.026;2023-02-05T22:16:05;24.55;;;3.88;;
52470;SDS011;38382;53.160;7.026;2023-02-05T22:18:32;24.08;;;4.18;;
52470;SDS011;38382;53.160;7.026;2023-02-05T22:23:43;24.30;;;5.13;;
52470;SDS011;38382;53.160;7.026;2023-02-05T22:26:12;27.02;;;5.38;;
52470;SDS011;38382;53.160;7.026;2023-02-05T22:28:40;23.48;;;3.47;;
52470;SDS011;38382;53.160;7.026;2023-02-05T22:31:09;19.88;;;3.80;;
52470;SDS011;38382;53.160;7.026;2023-02-05T22:33:37;27.90;;;3.90;;
52470;SDS011;38382;53.160;7.026;2023-02-05T22:36:05;26.55;;;4.97;;
52470;SDS011;38382;53.160;7.026;2023-02-05T22:38:33;21.80;;;4.13;;
52470;SDS011;38382;53.160;7.026;2023-02-05T22:40:59;21.77;;;3.35;;
52470;SDS011;38382;53.160;7.026;2023-02-05T22:43:26;30.13;;;4.63;;
52470;SDS011;38382;53.160;7.026;2023-02-05T22:45:52;30.90;;;4.20;;
52470;SDS011;38382;53.160;7.026;2023-02-05T22:48:17;27.15;;;4.55;;
52470;SDS011;38382;53.160;7.026;2023-02-05T22:50:43;22.75;;;3.88;;
52470;SDS011;38382;53.160;7.026;2023-02-05T22:53:10;22.73;;;4.07;;
52470;SDS011;38382;53.160;7.026;2023-02-05T22:55:39;25.27;;;5.03;;
52470;SDS011;38382;53.160;7.026;2023-02-05T22:58:05;26.23;;;4.88;;
52470;SDS011;38382;53.160;7.026;2023-02-05T23:00:31;25.95;;;4.93;;
52470;SDS011;38382;53.160;7.026;2023-02-05T23:02:58;21.60;;;3.95;;
52470;SDS011;38382;53.160;7.026;2023-02-05T23:05:24;25.13;;;4.88;;
52470;SDS011;38382;53.160;7.026;2023-02-05T23:07:54;28.77;;;5.25;;
52470;SDS011;38382;53.160;7.026;2023-02-05T23:10:20;29.55;;;5.63;;
52470;SDS011;38382;53.160;7.026;2023-02-05T23:12:46;30.90;;;5.93;;
52470;SDS011;38382;53.160;7.026;2023-02-05T23:15:13;27.58;;;4.97;;
52470;SDS011;38382;53.160;7.026;2023-02-05T23:17:39;30.08;;;5.18;;
52470;SDS011;38382;53.160;7.026;2023-02-05T23:20:06;31.77;;;6.47;;
52470;SDS011;38382;53.160;7.026;2023-02-05T23:22:32;27.13;;;5.90;;
52470;SDS011;38382;53.160;7.026;2023-02-05T23:24:58;31.52;;;7.28;;
52470;SDS011;38382;53.160;7.026;2023-02-05T23:27:25;25.17;;;5.45;;
52470;SDS011;38382;53.160;7.026;2023-02-05T23:29:51;27.38;;;5.50;;
52470;SDS011;38382;53.160;7.026;2023-02-05T23:32:19;32.67;;;6.70;;
52470;SDS011;38382;53.160;7.026;2023-02-05T23:34:45;25.98;;;5.78;;
52470;SDS011;38382;53.160;7.026;2023-02-05T23:37:11;26.75;;;5.43;;
52470;SDS011;38382;53.160;7.026;2023-02-05T23:39:37;24.50;;;5.72;;
52470;SDS011;38382;53.160;7.026;2023-02-05T23:42:03;24.85;;;5.40;;
52470;SDS011;38382;53.160;7.026;2023-02-05T23:44:29;25.55;;;6.07;;